Time;durP1;ratioP1;P1;durP2;ratioP2;P2;SDS_P1;SDS_P2;PMS_P1;PMS_P2;Temp;Humidity;BMP_temperature;BMP_pressure;BME280_temperature;BME280_humidity;BME280_pressure;Samples;Min_cycle;Max_cycle;Signal;HPM_P1;HPM_P2
2021/06/28 16:55:51;;;;;;;3.55;0.82;;;26.30;99.90;;;;;;5021595;22;20600;-75
2021/06/28 16:58:18;;;;;;;1.90;1.23;;;26.20;99.90;;;;;;4996256;28;20217;-76
2021/06/28 17:00:44;;;;;;;1.63;0.90;;;26.10;99.90;;;;;;4996072;28;20209;-74
2021/06/28 17:03:11;;;;;;;1.20;0.80;;;26.10;99.90;;;;;;4991535;28;20230;-74
2021/06/28 17:05:38;;;;;;;1.23;0.80;;;26.10;99.90;;;;;;4995716;28;20569;-73
2021/06/28 17:08:05;;;;;;;3.33;1.00;;;26.20;99.90;;;;;;4995293;28;20564;-74
2021/06/28 17:10:33;;;;;;;1.67;0.90;;;26.20;99.90;;;;;;4991971;28;20210;-75
2021/06/28 17:13:01;;;;;;;1.05;0.80;;;26.10;99.90;;;;;;4993834;28;20632;-74
2021/06/28 17:15:28;;;;;;;2.42;0.90;;;25.90;99.90;;;;;;4994249;28;20289;-73
2021/06/28 17:17:55;;;;;;;0.80;0.70;;;25.80;99.90;;;;;;4994183;28;20206;-74
2021/06/28 17:20:22;;;;;;;1.50;0.90;;;25.80;99.90;;;;;;4994053;28;20234;-82
2021/06/28 17:22:49;;;;;;;0.70;0.70;;;25.70;99.90;;;;;;4993634;28;20584;-77
2021/06/28 17:25:16;;;;;;;0.90;0.73;;;25.60;99.90;;;;;;4993894;28;20207;-76
2021/06/28 17:27:43;;;;;;;1.40;1.00;;;25.50;99.90;;;;;;4994484;28;20220;-77
2021/06/28 17:30:11;;;;;;;2.03;0.60;;;25.50;99.90;;;;;;4994253;28;20202;-76
2021/06/28 17:32:38;;;;;;;1.02;0.82;;;25.40;99.90;;;;;;4993336;28;20708;-74
2021/06/28 17:35:06;;;;;;;1.20;0.80;;;25.30;99.90;;;;;;4995598;28;20217;-74
2021/06/28 17:37:33;;;;;;;1.00;0.90;;;25.40;99.90;;;;;;4995346;28;20208;-74
2021/06/28 17:40:01;;;;;;;1.23;0.88;;;25.20;99.90;;;;;;4995250;28;20211;-74
2021/06/28 17:42:28;;;;;;;1.63;1.30;;;25.10;99.90;;;;;;4995186;28;20585;-74
2021/06/28 17:44:55;;;;;;;1.55;1.17;;;25.00;99.90;;;;;;4995110;28;20207;-75
2021/06/28 17:47:23;;;;;;;1.40;1.05;;;24.90;99.90;;;;;;4995579;28;20592;-74
2021/06/28 17:49:50;;;;;;;2.65;1.20;;;24.80;99.90;;;;;;4995371;28;20215;-73
2021/06/28 17:52:17;;;;;;;1.48;1.17;;;24.90;99.90;;;;;;4994935;28;20230;-74
2021/06/28 17:54:44;;;;;;;1.45;1.15;;;24.70;99.90;;;;;;4995413;28;20645;-74
2021/06/28 17:57:11;;;;;;;1.40;1.10;;;24.70;99.90;;;;;;4994494;28;20241;-74
2021/06/28 17:59:38;;;;;;;3.63;1.63;;;24.70;99.90;;;;;;4994777;28;20653;-74
2021/06/28 18:02:06;;;;;;;1.60;1.10;;;24.70;99.90;;;;;;4995094;28;20235;-74
2021/06/28 18:04:36;;;;;;;1.58;1.17;;;24.70;99.90;;;;;;4994819;28;20202;-75
2021/06/28 18:07:04;;;;;;;1.55;1.05;;;24.60;99.90;;;;;;4995049;28;20233;-74
2021/06/28 18:09:30;;;;;;;1.95;1.50;;;24.60;99.90;;;;;;4994782;28;20234;-75
2021/06/28 18:11:57;;;;;;;1.48;1.30;;;24.50;99.90;;;;;;4994231;28;20237;-75
2021/06/28 18:14:24;;;;;;;1.73;1.40;;;24.50;99.90;;;;;;4994541;28;20209;-74
2021/06/28 18:16:51;;;;;;;2.50;1.50;;;24.50;99.90;;;;;;4994443;28;20217;-75
2021/06/28 18:19:18;;;;;;;1.45;1.05;;;24.40;99.90;;;;;;4994149;28;20206;-75
2021/06/28 18:21:47;;;;;;;1.92;1.10;;;24.40;99.90;;;;;;4994134;28;20230;-75
2021/06/28 18:24:15;;;;;;;2.00;1.08;;;24.40;99.90;;;;;;4989075;28;20209;-75
2021/06/28 18:26:43;;;;;;;1.92;1.30;;;24.40;99.90;;;;;;4994266;28;20301;-75
2021/06/28 18:29:10;;;;;;;1.38;1.20;;;24.40;99.90;;;;;;4994167;28;20273;-75
2021/06/28 18:31:38;;;;;;;1.70;1.30;;;24.30;99.90;;;;;;4993718;28;20202;-74
2021/06/28 18:34:05;;;;;;;1.85;1.42;;;24.30;99.90;;;;;;4993457;28;20284;-75
2021/06/28 18:36:32;;;;;;;1.90;1.30;;;24.40;99.90;;;;;;4993625;28;20252;-75
2021/06/28 18:39:08;;;;;;;2.67;1.40;;;24.40;99.90;;;;;;4993585;28;20260;-74
2021/06/28 18:41:34;;;;;;;1.40;1.20;;;24.30;99.90;;;;;;4994020;28;20213;-75
2021/06/28 18:44:01;;;;;;;2.00;1.20;;;24.20;99.90;;;;;;4993610;28;20572;-74
2021/06/28 18:46:28;;;;;;;2.45;1.20;;;24.10;99.90;;;;;;4993759;28;20297;-75
2021/06/28 18:48:56;;;;;;;1.35;1.13;;;23.80;99.90;;;;;;4994536;28;20301;-75
2021/06/28 18:51:23;;;;;;;1.67;1.27;;;23.80;99.90;;;;;;4993844;28;20230;-74
2021/06/28 18:53:51;;;;;;;2.05;1.40;;;23.90;99.90;;;;;;4993419;28;20245;-74
2021/06/28 18:56:33;;;;;;;1.70;1.40;;;23.90;99.90;;;;;;4993831;28;20676;-73
2021/06/28 18:59:04;;;;;;;1.70;1.30;;;23.90;99.90;;;;;;4993819;28;20220;-74
2021/06/28 19:01:32;;;;;;;1.67;1.05;;;23.80;99.90;;;;;;4994818;28;20290;-75
2021/06/28 19:03:59;;;;;;;2.83;1.20;;;23.50;99.90;;;;;;5007734;28;20345;-74
2021/06/28 19:06:26;;;;;;;2.53;1.48;;;23.60;99.90;;;;;;5008034;28;20229;-74
2021/06/28 19:08:53;;;;;;;2.40;1.33;;;23.50;99.90;;;;;;5009210;28;20266;-74
2021/06/28 19:11:23;;;;;;;2.95;1.45;;;23.40;99.90;;;;;;5002802;28;20660;-75
2021/06/28 19:13:50;;;;;;;1.90;1.25;;;23.40;99.90;;;;;;4994047;28;20246;-75
2021/06/28 19:16:18;;;;;;;1.52;1.20;;;23.30;99.90;;;;;;4994008;28;20225;-75
2021/06/28 19:18:44;;;;;;;3.97;1.52;;;23.10;99.90;;;;;;4993583;28;20199;-75
2021/06/28 19:21:11;;;;;;;3.60;1.60;;;23.00;99.90;;;;;;4993064;28;20744;-74
2021/06/28 19:23:38;;;;;;;3.05;1.58;;;23.10;99.90;;;;;;4987434;28;20226;-74
2021/06/28 19:26:06;;;;;;;3.83;1.85;;;23.10;99.90;;;;;;4992251;28;20673;-75
2021/06/28 19:28:34;;;;;;;5.43;1.73;;;23.10;99.90;;;;;;4993190;28;20261;-75
2021/06/28 19:31:02;;;;;;;3.90;1.75;;;23.10;99.90;;;;;;4993081;28;20203;-74
2021/06/28 19:33:29;;;;;;;2.13;1.48;;;23.00;99.90;;;;;;4992880;28;20238;-74
2021/06/28 19:35:57;;;;;;;1.75;1.30;;;23.00;99.90;;;;;;4993021;28;20293;-74
2021/06/28 19:38:24;;;;;;;4.22;1.40;;;22.90;99.90;;;;;;4992848;28;20210;-74
2021/06/28 19:40:51;;;;;;;2.88;1.60;;;22.90;99.90;;;;;;4993381;28;20203;-74
2021/06/28 19:43:18;;;;;;;2.67;1.30;;;22.70;99.90;;;;;;4993072;28;20320;-74
2021/06/28 19:45:46;;;;;;;2.17;1.38;;;22.70;99.90;;;;;;4994076;28;20217;-75
2021/06/28 19:48:13;;;;;;;2.47;1.60;;;22.60;99.90;;;;;;4997170;28;20569;-74
2021/06/28 19:50:40;;;;;;;2.55;1.48;;;22.60;99.90;;;;;;4997073;28;20214;-74
2021/06/28 19:53:07;;;;;;;2.40;1.30;;;22.50;99.90;;;;;;4996426;28;20328;-75
2021/06/28 19:55:33;;;;;;;2.78;1.40;;;22.40;99.90;;;;;;4997109;28;20249;-74
2021/06/28 19:58:00;;;;;;;1.95;1.30;;;22.40;99.90;;;;;;4996597;28;20206;-74
2021/06/28 20:00:27;;;;;;;4.30;1.63;;;22.40;99.90;;;;;;4996944;28;20748;-74
2021/06/28 20:02:55;;;;;;;2.70;1.40;;;22.30;99.90;;;;;;4996569;28;20317;-74
2021/06/28 20:05:22;;;;;;;2.97;1.52;;;22.30;99.90;;;;;;4997101;28;20302;-74
2021/06/28 20:07:49;;;;;;;3.17;1.58;;;22.10;99.90;;;;;;4996251;28;20281;-74
2021/06/28 20:10:16;;;;;;;2.97;1.73;;;22.10;99.90;;;;;;4996356;28;20294;-74
2021/06/28 20:12:43;;;;;;;2.40;1.50;;;22.00;99.90;;;;;;4996182;28;20253;-75
2021/06/28 20:15:11;;;;;;;3.63;1.52;;;21.90;99.90;;;;;;4996581;28;20282;-75
2021/06/28 20:17:38;;;;;;;2.38;1.45;;;21.90;99.90;;;;;;4996137;28;20282;-74
2021/06/28 20:20:08;;;;;;;4.60;1.60;;;21.80;99.90;;;;;;4995944;28;20198;-74
2021/06/28 20:22:35;;;;;;;2.95;1.45;;;21.70;99.90;;;;;;4996211;28;20669;-74
2021/06/28 20:25:02;;;;;;;2.83;1.60;;;21.60;99.90;;;;;;4990725;28;20305;-74
2021/06/28 20:27:29;;;;;;;4.57;1.60;;;21.60;99.90;;;;;;4995656;28;20297;-74
2021/06/28 20:29:55;;;;;;;2.53;1.63;;;21.50;99.90;;;;;;4993359;28;20202;-75
2021/06/28 20:32:22;;;;;;;3.28;1.50;;;21.50;99.90;;;;;;4993084;28;20244;-74
2021/06/28 20:34:50;;;;;;;3.53;1.58;;;21.40;99.90;;;;;;4996093;28;20230;-75
2021/06/28 20:37:18;;;;;;;2.92;1.40;;;21.40;99.90;;;;;;4994866;28;20206;-75
